createdAt,value
2019-03-03T00:02:36.097Z,71.38
2019-03-03T00:05:40.552Z,71.34
2019-03-03T00:08:45.316Z,71.62
2019-03-03T00:11:49.757Z,71.91
2019-03-03T00:14:54.471Z,71.58
2019-03-03T00:17:58.983Z,71.42
2019-03-03T00:21:03.406Z,71.53
2019-03-03T00:24:07.841Z,72.07
2019-03-03T00:27:12.580Z,71.61
2019-03-03T00:30:21.311Z,71.56
2019-03-03T00:33:26.137Z,71.25
2019-03-03T00:36:32.204Z,70.80
2019-03-03T00:39:41.329Z,70.33
2019-03-03T00:42:47.413Z,70.29
2019-03-03T00:46:09.677Z,70.39
2019-03-03T00:49:18.922Z,70.69
2019-03-03T00:52:31.093Z,70.48
2019-03-03T00:55:37.448Z,70.22
2019-03-03T00:58:56.406Z,70.11
2019-03-03T01:02:05.258Z,69.85
2019-03-03T01:05:23.791Z,68.97
2019-03-03T01:08:32.614Z,69.32
2019-03-03T01:11:44.630Z,68.83
2019-03-03T01:14:51.390Z,68.98
2019-03-03T01:18:03.715Z,68.67
2019-03-03T01:21:12.532Z,68.36
2019-03-03T01:24:36.637Z,67.76
2019-03-03T01:27:41.349Z,67.72
2019-03-03T01:30:45.860Z,67.41
2019-03-03T01:33:50.301Z,67.20
2019-03-03T01:36:54.729Z,67.48
2019-03-03T01:39:59.165Z,67.35
2019-03-03T01:43:03.594Z,67.43
2019-03-03T01:46:08.295Z,68.03
2019-03-03T01:49:13.031Z,68.23
2019-03-03T01:52:17.466Z,68.67
2019-03-03T01:55:21.923Z,68.48
2019-03-03T01:58:26.610Z,68.36
2019-03-03T02:01:31.405Z,68.25
2019-03-03T02:04:35.835Z,68.59
2019-03-03T02:07:40.257Z,68.72
2019-03-03T02:10:45.128Z,68.69
2019-03-03T02:13:49.847Z,68.53
2019-03-03T02:16:54.582Z,68.19
2019-03-03T02:19:59.315Z,68.36
2019-03-03T02:23:03.750Z,68.09
2019-03-03T02:26:08.187Z,67.84
2019-03-03T02:29:12.889Z,67.84
2019-03-03T02:32:17.318Z,68.13
2019-03-03T02:35:21.819Z,68.15
2019-03-03T02:38:27.187Z,68.26
2019-03-03T02:41:31.912Z,67.94
2019-03-03T02:44:36.438Z,67.93
2019-03-03T02:47:41.174Z,68.11
2019-03-03T02:50:45.612Z,68.21
2019-03-03T02:53:50.113Z,68.13
2019-03-03T02:56:54.536Z,67.96
2019-03-03T02:59:59.276Z,68.07
2019-03-03T03:03:07.770Z,67.96
2019-03-03T03:06:14.164Z,67.87
2019-03-03T03:09:22.941Z,67.81
2019-03-03T03:12:31.916Z,67.90
2019-03-03T03:15:40.661Z,67.98
2019-03-03T03:19:02.775Z,67.87
2019-03-03T03:22:08.925Z,67.70
2019-03-03T03:25:25.147Z,67.72
2019-03-03T03:28:47.590Z,67.84
2019-03-03T03:31:56.950Z,67.73
2019-03-03T03:35:12.033Z,67.38
2019-03-03T03:38:30.101Z,67.39
2019-03-03T03:41:36.423Z,67.34
2019-03-03T03:44:48.526Z,67.29
2019-03-03T03:48:12.913Z,67.41
2019-03-03T03:51:27.894Z,67.66
2019-03-03T03:54:50.385Z,67.87
2019-03-03T03:57:56.804Z,67.87
2019-03-03T04:01:02.892Z,68.21
2019-03-03T04:04:11.900Z,68.15
2019-03-03T04:07:18.248Z,68.24
2019-03-03T04:10:26.815Z,68.37
2019-03-03T04:13:32.903Z,68.92
2019-03-03T04:16:47.689Z,68.76
2019-03-03T04:19:53.747Z,68.74
2019-03-03T04:23:02.601Z,69.12
2019-03-03T04:26:24.844Z,69.42
2019-03-03T04:29:36.931Z,69.46
2019-03-03T04:32:47.106Z,69.58
2019-03-03T04:35:59.312Z,69.78
2019-03-03T04:39:20.332Z,69.55
2019-03-03T04:42:38.175Z,69.67
2019-03-03T04:45:50.369Z,69.70
2019-03-03T04:48:59.394Z,69.66
2019-03-03T04:52:21.505Z,69.77
2019-03-03T04:55:43.908Z,70.07
2019-03-03T04:58:51.070Z,70.10
2019-03-03T05:02:02.847Z,70.10
2019-03-03T05:05:16.417Z,70.08
2019-03-03T05:08:25.193Z,70.20
2019-03-03T05:12:23.910Z,70.24
2019-03-03T05:15:45.224Z,70.00
2019-03-03T05:18:51.620Z,69.53
2019-03-03T05:21:56.359Z,69.79
2019-03-03T05:25:00.785Z,69.75
2019-03-03T05:28:05.509Z,69.38
2019-03-03T05:31:10.017Z,69.68
2019-03-03T05:34:16.644Z,69.86
2019-03-03T05:37:21.325Z,70.49
2019-03-03T05:40:26.066Z,70.54
2019-03-03T05:43:30.514Z,70.78
2019-03-03T05:46:35.214Z,70.33
2019-03-03T05:49:39.961Z,70.65
2019-03-03T05:52:44.387Z,70.98
2019-03-03T05:55:49.099Z,71.38
2019-03-03T05:58:53.839Z,71.29
2019-03-03T06:01:58.265Z,71.42
2019-03-03T06:05:02.692Z,71.42
2019-03-03T06:08:07.127Z,71.51
2019-03-03T06:11:11.554Z,71.09
2019-03-03T06:14:16.259Z,70.79
2019-03-03T06:17:20.990Z,70.12
2019-03-03T06:20:25.414Z,69.90
2019-03-03T06:23:30.244Z,69.79
2019-03-03T06:26:34.677Z,68.90
2019-03-03T06:29:39.404Z,68.61
2019-03-03T06:32:44.134Z,68.74
2019-03-03T06:35:48.559Z,68.84
2019-03-03T06:38:53.286Z,68.10
2019-03-03T06:41:58.022Z,68.55
2019-03-03T06:45:02.475Z,68.79
2019-03-03T06:48:06.900Z,68.93
2019-03-03T06:51:11.322Z,68.83
2019-03-03T06:54:16.117Z,68.87
2019-03-03T06:57:20.846Z,68.75
2019-03-03T07:00:25.269Z,68.16
2019-03-03T07:03:29.705Z,67.22
2019-03-03T07:06:34.138Z,66.35
2019-03-03T07:09:38.954Z,64.57
2019-03-03T07:12:43.396Z,63.54
2019-03-03T07:15:48.108Z,63.00
2019-03-03T07:18:52.840Z,62.82
2019-03-03T07:21:57.571Z,63.27
2019-03-03T07:25:02.030Z,62.94
2019-03-03T07:28:06.724Z,63.34
2019-03-03T07:31:11.453Z,62.96
2019-03-03T07:34:16.190Z,63.19
2019-03-03T07:37:20.614Z,63.03
2019-03-03T07:40:25.057Z,62.47
2019-03-03T07:43:29.506Z,62.84
2019-03-03T07:46:34.917Z,63.01
2019-03-03T07:49:39.363Z,63.04
2019-03-03T07:52:43.867Z,63.39
2019-03-03T07:55:48.591Z,63.43
2019-03-03T07:58:53.031Z,63.17
2019-03-03T08:01:57.744Z,62.91
2019-03-03T08:05:02.474Z,62.95
2019-03-03T08:08:06.911Z,62.98
2019-03-03T08:11:11.631Z,63.11
2019-03-03T08:14:16.364Z,62.96
2019-03-03T08:17:20.790Z,63.40
2019-03-03T08:20:25.510Z,63.23
2019-03-03T08:23:29.951Z,63.01
2019-03-03T08:26:34.664Z,63.35
2019-03-03T08:29:39.110Z,63.44
2019-03-03T08:32:43.547Z,64.05
2019-03-03T08:35:48.001Z,64.27
2019-03-03T08:38:52.767Z,63.67
2019-03-03T08:41:59.135Z,63.98
2019-03-03T08:45:06.017Z,63.67
2019-03-03T08:48:21.200Z,63.42
2019-03-03T08:51:27.284Z,63.87
2019-03-03T08:54:36.097Z,63.05
2019-03-03T08:57:42.189Z,62.85
2019-03-03T09:00:50.961Z,63.49
2019-03-03T09:04:13.444Z,63.49
2019-03-03T09:07:19.544Z,63.62
2019-03-03T09:10:28.618Z,63.60
2019-03-03T09:13:37.590Z,63.33
2019-03-03T09:16:48.278Z,63.38
2019-03-03T09:20:03.974Z,62.98
2019-03-03T09:23:16.309Z,62.90
2019-03-03T09:26:28.359Z,62.28
2019-03-03T09:29:34.450Z,61.79
2019-03-03T09:32:40.854Z,62.11
2019-03-03T09:35:45.374Z,61.74
2019-03-03T09:39:08.029Z,61.48
2019-03-03T09:42:23.308Z,61.40
2019-03-03T09:45:31.993Z,61.42
2019-03-03T09:48:54.687Z,61.24
2019-03-03T09:52:01.226Z,61.12
2019-03-03T09:55:07.874Z,60.86
2019-03-03T09:58:19.914Z,60.57
2019-03-03T10:01:31.792Z,60.81
2019-03-03T10:04:44.137Z,60.78
2019-03-03T10:07:52.875Z,60.11
2019-03-03T10:10:57.380Z,60.07
2019-03-03T10:14:03.456Z,60.04
2019-03-03T10:17:21.789Z,59.95
2019-03-03T10:20:30.599Z,59.39
2019-03-03T10:23:53.064Z,59.21
2019-03-03T10:27:11.418Z,59.34
2019-03-03T10:30:18.361Z,59.38
2019-03-03T10:33:34.605Z,58.88
2019-03-03T10:36:44.285Z,58.60
2019-03-03T10:40:06.687Z,58.97
2019-03-03T10:43:12.777Z,58.16
2019-03-03T10:46:21.518Z,58.45
2019-03-03T10:49:33.581Z,58.83
2019-03-03T10:52:40.056Z,57.99
2019-03-03T10:55:46.134Z,57.93
2019-03-03T10:58:52.218Z,57.97
2019-03-03T11:02:01.208Z,58.21
2019-03-03T11:05:10.512Z,58.21
2019-03-03T11:08:16.607Z,58.11
2019-03-03T11:11:38.883Z,58.22
2019-03-03T11:14:50.562Z,58.58
2019-03-03T11:17:57.562Z,59.02
2019-03-03T11:21:06.971Z,58.70
2019-03-03T11:24:29.437Z,58.98
2019-03-03T11:27:49.610Z,59.08
2019-03-03T11:30:55.982Z,58.83
2019-03-03T11:34:05.236Z,58.98
2019-03-03T11:37:14.244Z,58.99
2019-03-03T11:40:29.492Z,58.81
2019-03-03T11:43:38.228Z,59.06
2019-03-03T11:46:44.303Z,58.80
2019-03-03T11:49:50.388Z,58.40
2019-03-03T11:52:54.895Z,58.20
2019-03-03T11:56:19.810Z,57.73
2019-03-03T11:59:31.903Z,57.51
2019-03-03T12:02:54.358Z,57.74
2019-03-03T12:06:12.734Z,57.36
2019-03-03T12:09:25.033Z,57.22
2019-03-03T12:12:31.114Z,57.60
2019-03-03T12:15:40.208Z,57.62
2019-03-03T12:18:54.839Z,57.75
2019-03-03T12:22:01.143Z,57.94
2019-03-03T12:25:10.786Z,57.83
2019-03-03T12:28:25.564Z,57.52
2019-03-03T12:31:34.279Z,57.56
2019-03-03T12:34:38.541Z,57.55
2019-03-03T12:37:47.548Z,57.03
2019-03-03T12:41:09.322Z,56.60
2019-03-03T12:44:15.459Z,56.25
2019-03-03T12:47:25.373Z,55.30
2019-03-03T12:50:47.821Z,54.50
2019-03-03T12:54:08.728Z,53.77
2019-03-03T12:57:17.267Z,54.23
2019-03-03T13:00:26.280Z,53.88
2019-03-03T13:03:48.719Z,53.57
2019-03-03T13:06:57.566Z,53.89
2019-03-03T13:10:12.363Z,54.39
2019-03-03T13:13:21.220Z,55.12
2019-03-03T13:16:42.563Z,54.88
2019-03-03T13:19:58.418Z,55.19
2019-03-03T13:23:20.082Z,55.23
2019-03-03T13:26:41.968Z,55.58
2019-03-03T13:29:53.482Z,55.52
2019-03-03T13:33:05.829Z,55.98
2019-03-03T13:36:12.239Z,56.22
2019-03-03T13:39:21.090Z,56.36
2019-03-03T13:42:36.291Z,56.37
2019-03-03T13:45:40.792Z,56.11
2019-03-03T13:48:45.660Z,55.96
2019-03-03T13:51:50.096Z,56.18
2019-03-03T13:54:54.906Z,56.31
2019-03-03T13:57:59.339Z,56.92
2019-03-03T14:01:04.276Z,56.85
2019-03-03T14:04:08.771Z,57.18
2019-03-03T14:07:13.221Z,57.11
2019-03-03T14:10:17.693Z,56.75
2019-03-03T14:13:22.133Z,55.67
2019-03-03T14:16:26.638Z,55.09
2019-03-03T14:19:31.494Z,55.23
2019-03-03T14:22:36.257Z,54.55
2019-03-03T14:25:40.707Z,53.48
2019-03-03T14:28:45.144Z,52.62
2019-03-03T14:31:49.603Z,52.96
2019-03-03T14:34:54.036Z,52.71
2019-03-03T14:37:58.782Z,52.18
2019-03-03T14:41:03.511Z,52.19
2019-03-03T14:44:08.243Z,51.18
2019-03-03T14:47:12.691Z,50.92
2019-03-03T14:50:21.196Z,51.09
2019-03-03T14:53:25.631Z,50.71
2019-03-03T14:56:30.339Z,51.19
2019-03-03T14:59:35.286Z,50.38
2019-03-03T15:02:39.813Z,50.00
2019-03-03T15:05:44.254Z,49.86
2019-03-03T15:08:48.955Z,50.48
2019-03-03T15:11:53.404Z,50.32
2019-03-03T15:14:58.215Z,51.34
2019-03-03T15:18:02.732Z,51.57
2019-03-03T15:21:07.171Z,51.93
2019-03-03T15:24:11.744Z,52.29
2019-03-03T15:27:16.522Z,52.88
2019-03-03T15:30:22.893Z,52.85
2019-03-03T15:33:27.341Z,53.15
2019-03-03T15:36:31.788Z,53.45
2019-03-03T15:39:36.574Z,52.93
2019-03-03T15:42:41.755Z,53.03
2019-03-03T15:45:46.203Z,53.17
2019-03-03T15:48:50.647Z,51.97
2019-03-03T15:51:55.082Z,52.37
2019-03-03T15:54:59.521Z,53.13
2019-03-03T15:58:03.961Z,53.02
2019-03-03T16:01:13.253Z,52.56
2019-03-03T16:04:17.998Z,52.41
2019-03-03T16:07:22.731Z,52.41
2019-03-03T16:10:28.191Z,52.47
2019-03-03T16:13:32.930Z,52.96
2019-03-03T16:16:37.365Z,53.12
2019-03-03T16:19:42.067Z,53.23
2019-03-03T16:22:46.846Z,53.39
2019-03-03T16:25:51.719Z,53.35
2019-03-03T16:28:56.400Z,53.49
2019-03-03T16:32:00.843Z,53.39
2019-03-03T16:35:07.086Z,53.26
2019-03-03T16:38:11.529Z,53.75
2019-03-03T16:41:16.215Z,54.18
2019-03-03T16:44:20.650Z,54.12
2019-03-03T16:47:25.359Z,53.81
2019-03-03T16:50:29.792Z,53.32
2019-03-03T16:53:34.232Z,53.76
2019-03-03T16:56:38.679Z,53.53
2019-03-03T16:59:43.457Z,53.63
2019-03-03T17:02:48.199Z,54.82
2019-03-03T17:05:53.017Z,53.55
2019-03-03T17:08:57.464Z,53.41
2019-03-03T17:12:02.600Z,53.15
2019-03-03T17:15:14.793Z,52.95
2019-03-03T17:18:19.246Z,53.63
2019-03-03T17:21:23.732Z,53.20
2019-03-03T17:24:28.123Z,53.89
2019-03-03T17:27:32.897Z,54.03
2019-03-03T17:30:37.499Z,54.15
2019-03-03T17:33:42.259Z,54.91
2019-03-03T17:36:46.698Z,54.77
2019-03-03T17:39:51.459Z,55.01
2019-03-03T17:42:55.857Z,55.25
2019-03-03T17:46:00.297Z,55.79
2019-03-03T17:49:04.735Z,55.51
2019-03-03T17:52:09.455Z,55.65
2019-03-03T17:55:15.193Z,55.59
2019-03-03T17:58:19.899Z,55.93
2019-03-03T18:01:24.735Z,56.33
2019-03-03T18:04:29.466Z,56.47
2019-03-03T18:07:33.919Z,56.34
2019-03-03T18:10:38.427Z,56.47
2019-03-03T18:13:42.873Z,56.15
2019-03-03T18:16:47.310Z,56.59
2019-03-03T18:19:51.752Z,56.94
2019-03-03T18:22:56.521Z,57.44
2019-03-03T18:26:02.889Z,57.48
2019-03-03T18:29:07.618Z,57.78
2019-03-03T18:32:12.059Z,58.07
2019-03-03T18:35:17.293Z,57.94
2019-03-03T18:38:22.015Z,57.93
2019-03-03T18:41:26.459Z,58.51
2019-03-03T18:44:31.176Z,59.15
2019-03-03T18:47:35.606Z,59.80
2019-03-03T18:50:40.314Z,60.25
2019-03-03T18:53:44.769Z,61.17
2019-03-03T18:56:49.211Z,61.51
2019-03-03T18:59:55.492Z,61.59
2019-03-03T19:03:00.155Z,62.04
2019-03-03T19:06:05.006Z,62.36
2019-03-03T19:09:11.513Z,63.03
2019-03-03T19:12:16.314Z,63.72
2019-03-03T19:15:21.595Z,63.57
2019-03-03T19:18:26.028Z,62.75
2019-03-03T19:21:30.472Z,63.21
2019-03-03T19:24:35.225Z,61.41
2019-03-03T19:27:40.894Z,60.54
2019-03-03T19:30:45.444Z,60.09
2019-03-03T19:33:54.235Z,59.68
2019-03-03T19:36:58.677Z,59.77
2019-03-03T19:40:03.384Z,60.00
2019-03-03T19:43:07.964Z,60.42
2019-03-03T19:46:12.859Z,60.59
2019-03-03T19:49:17.276Z,60.22
2019-03-03T19:52:21.996Z,60.13
2019-03-03T19:55:26.441Z,60.09
2019-03-03T19:58:30.878Z,60.46
2019-03-03T20:01:35.329Z,60.49
2019-03-03T20:04:40.100Z,60.26
2019-03-03T20:07:44.835Z,60.25
2019-03-03T20:10:49.342Z,60.06
2019-03-03T20:13:53.777Z,60.16
2019-03-03T20:16:58.266Z,60.43
2019-03-03T20:20:02.936Z,60.47
2019-03-03T20:23:08.152Z,60.93
2019-03-03T20:26:13.029Z,61.94
2019-03-03T20:29:17.513Z,62.80
2019-03-03T20:32:21.920Z,63.27
2019-03-03T20:35:26.431Z,63.55
2019-03-03T20:38:30.870Z,63.74
2019-03-03T20:41:35.313Z,64.00
2019-03-03T20:44:39.742Z,64.65
2019-03-03T20:47:44.190Z,64.76
2019-03-03T20:50:48.626Z,64.65
2019-03-03T20:53:53.056Z,65.10
2019-03-03T20:56:57.500Z,64.88
2019-03-03T21:00:02.210Z,64.73
2019-03-03T21:03:06.650Z,65.23
2019-03-03T21:06:11.448Z,65.49
2019-03-03T21:09:16.376Z,65.52
2019-03-03T21:12:20.827Z,65.84
2019-03-03T21:15:25.264Z,65.65
2019-03-03T21:18:29.695Z,65.55
2019-03-03T21:21:34.134Z,65.56
2019-03-03T21:24:38.805Z,65.74
2019-03-03T21:27:43.238Z,65.60
2019-03-03T21:30:47.675Z,65.95
2019-03-03T21:33:52.101Z,66.08
2019-03-03T21:36:56.542Z,66.25
2019-03-03T21:40:00.976Z,66.36
2019-03-03T21:43:05.443Z,66.33
2019-03-03T21:46:09.872Z,66.67
2019-03-03T21:49:14.601Z,66.53
2019-03-03T21:52:19.038Z,67.16
2019-03-03T21:55:23.750Z,67.09
2019-03-03T21:58:28.177Z,67.16
2019-03-03T22:01:32.907Z,66.97
2019-03-03T22:04:37.641Z,67.51
2019-03-03T22:07:42.368Z,67.57
2019-03-03T22:10:46.854Z,68.16
2019-03-03T22:13:51.225Z,68.26
2019-03-03T22:16:55.663Z,68.39
2019-03-03T22:20:00.823Z,67.97
2019-03-03T22:23:05.504Z,67.94
2019-03-03T22:26:09.941Z,67.68
2019-03-03T22:29:14.662Z,67.25
2019-03-03T22:32:19.395Z,66.96
2019-03-03T22:35:23.819Z,66.97
2019-03-03T22:38:28.553Z,66.89
2019-03-03T22:41:32.986Z,66.88
2019-03-03T22:44:38.146Z,66.95
2019-03-03T22:47:43.048Z,66.40
2019-03-03T22:50:47.467Z,66.14
2019-03-03T22:53:51.906Z,65.53
2019-03-03T22:56:56.625Z,65.58
2019-03-03T23:00:01.357Z,65.62
2019-03-03T23:03:07.526Z,65.89
2019-03-03T23:06:26.069Z,65.85
2019-03-03T23:10:00.400Z,65.31
2019-03-03T23:13:29.193Z,65.83
2019-03-03T23:16:52.557Z,65.20
2019-03-03T23:20:28.082Z,65.76
2019-03-03T23:24:12.473Z,66.02
2019-03-03T23:27:16.915Z,64.08
2019-03-03T23:30:21.679Z,63.54
2019-03-03T23:33:26.072Z,60.40
2019-03-03T23:36:30.509Z,57.85
2019-03-03T23:39:35.211Z,56.46
2019-03-03T23:42:40.037Z,55.99
2019-03-03T23:45:44.476Z,55.14
2019-03-03T23:48:48.912Z,54.81
2019-03-03T23:51:53.617Z,54.65
2019-03-03T23:54:58.358Z,54.00
2019-03-03T23:58:03.084Z,53.12
